createdAt,value
2022-09-11T00:01:14.214Z,17.03
2022-09-11T00:03:42.785Z,16.97
2022-09-11T00:06:20.429Z,16.99
2022-09-11T00:09:02.897Z,16.97
2022-09-11T00:11:33.099Z,16.93
2022-09-11T00:14:00.226Z,16.91
2022-09-11T00:16:28.836Z,16.84
2022-09-11T00:18:58.503Z,16.93
2022-09-11T00:21:26.422Z,16.94
2022-09-11T00:23:53.652Z,16.98
2022-09-11T00:26:21.405Z,17.00
2022-09-11T00:28:49.067Z,17.01
2022-09-11T00:31:17.903Z,17.00
2022-09-11T00:33:44.870Z,17.06
2022-09-11T00:36:17.178Z,17.09
2022-09-11T00:38:44.151Z,17.12
2022-09-11T00:41:15.537Z,17.07
2022-09-11T00:44:06.149Z,17.03
2022-09-11T00:46:37.678Z,17.10
2022-09-11T00:49:21.316Z,17.06
2022-09-11T00:51:51.048Z,17.06
2022-09-11T00:54:21.143Z,17.10
2022-09-11T00:56:48.170Z,17.23
2022-09-11T00:59:15.995Z,17.22
2022-09-11T01:01:43.616Z,17.21
2022-09-11T01:04:10.817Z,17.21
2022-09-11T01:06:37.580Z,17.29
2022-09-11T01:09:04.560Z,17.32
2022-09-11T01:11:42.258Z,17.31
2022-09-11T01:14:35.677Z,17.29
2022-09-11T01:17:22.546Z,17.31
2022-09-11T01:20:21.134Z,17.35
2022-09-11T01:23:10.748Z,17.36
2022-09-11T01:26:14.506Z,17.37
2022-09-11T01:28:51.802Z,17.41
2022-09-11T01:31:23.164Z,17.40
2022-09-11T01:34:05.910Z,17.42
2022-09-11T01:36:36.447Z,17.47
2022-09-11T01:39:04.357Z,17.53
2022-09-11T01:42:03.565Z,17.51
2022-09-11T01:44:42.364Z,17.52
2022-09-11T01:47:10.990Z,17.58
2022-09-11T01:49:48.765Z,17.54
2022-09-11T01:52:21.583Z,17.49
2022-09-11T01:54:57.627Z,17.51
2022-09-11T01:57:49.951Z,17.59
2022-09-11T02:00:17.299Z,17.62
2022-09-11T02:02:56.255Z,17.54
2022-09-11T02:05:27.623Z,17.55
2022-09-11T02:08:10.498Z,17.49
2022-09-11T02:10:44.271Z,17.41
2022-09-11T02:13:13.935Z,17.40
2022-09-11T02:15:46.691Z,17.35
2022-09-11T02:18:24.854Z,17.31
2022-09-11T02:20:53.397Z,17.38
2022-09-11T02:23:20.620Z,17.38
2022-09-11T02:25:48.158Z,17.32
2022-09-11T02:28:15.243Z,17.30
2022-09-11T02:30:43.009Z,17.27
2022-09-11T02:33:29.913Z,17.30
2022-09-11T02:36:07.697Z,17.35
2022-09-11T02:38:42.754Z,17.38
2022-09-11T02:41:15.009Z,17.32
2022-09-11T02:43:54.082Z,17.33
2022-09-11T02:46:26.953Z,17.39
2022-09-11T02:49:10.517Z,17.44
2022-09-11T02:51:42.017Z,17.49
2022-09-11T02:54:25.630Z,17.47
2022-09-11T02:57:19.379Z,17.49
2022-09-11T03:00:01.247Z,17.50
2022-09-11T03:02:31.087Z,17.49
2022-09-11T03:04:58.085Z,17.54
2022-09-11T03:07:25.711Z,17.57
2022-09-11T03:09:53.238Z,17.61
2022-09-11T03:12:22.821Z,17.64
2022-09-11T03:14:51.670Z,17.64
2022-09-11T03:17:18.455Z,17.52
2022-09-11T03:19:46.907Z,17.53
2022-09-11T03:22:14.791Z,17.49
2022-09-11T03:24:42.906Z,17.45
2022-09-11T03:27:10.601Z,17.44
2022-09-11T03:29:40.808Z,17.49
2022-09-11T03:32:07.777Z,17.52
2022-09-11T03:34:34.457Z,17.50
2022-09-11T03:37:02.222Z,17.51
2022-09-11T03:39:29.085Z,17.57
2022-09-11T03:41:58.917Z,17.62
2022-09-11T03:44:27.307Z,17.64
2022-09-11T03:46:54.050Z,17.66
2022-09-11T03:49:26.683Z,17.68
2022-09-11T03:51:55.032Z,17.68
2022-09-11T03:54:22.147Z,17.61
2022-09-11T03:56:51.518Z,17.61
2022-09-11T03:59:20.358Z,17.65
2022-09-11T04:01:50.881Z,17.66
2022-09-11T04:04:18.123Z,17.72
2022-09-11T04:06:45.673Z,17.64
2022-09-11T04:09:12.808Z,17.58
2022-09-11T04:11:40.164Z,17.56
2022-09-11T04:14:14.410Z,17.59
2022-09-11T04:16:43.502Z,17.57
2022-09-11T04:19:11.630Z,17.52
2022-09-11T04:21:39.388Z,17.51
2022-09-11T04:24:06.606Z,17.52
2022-09-11T04:26:35.812Z,17.58
2022-09-11T04:29:11.915Z,17.63
2022-09-11T04:31:41.312Z,17.65
2022-09-11T04:34:09.537Z,17.64
2022-09-11T04:36:37.583Z,17.65
2022-09-11T04:39:05.544Z,17.69
2022-09-11T04:41:32.409Z,17.72
2022-09-11T04:44:05.252Z,17.69
2022-09-11T04:46:37.026Z,17.64
2022-09-11T04:49:06.474Z,17.59
2022-09-11T04:51:36.685Z,17.55
2022-09-11T04:54:04.740Z,17.53
2022-09-11T04:56:39.926Z,17.48
2022-09-11T04:59:16.200Z,17.38
2022-09-11T05:02:05.308Z,17.37
2022-09-11T05:04:35.242Z,17.45
2022-09-11T05:07:02.663Z,17.50
2022-09-11T05:09:29.499Z,17.54
2022-09-11T05:11:58.106Z,17.58
2022-09-11T05:14:31.007Z,17.58
2022-09-11T05:16:57.924Z,17.57
2022-09-11T05:19:26.878Z,17.49
2022-09-11T05:21:53.722Z,17.46
2022-09-11T05:24:20.458Z,17.44
2022-09-11T05:26:47.296Z,17.49
2022-09-11T05:29:15.716Z,17.55
2022-09-11T05:31:47.919Z,17.57
2022-09-11T05:34:17.764Z,17.55
2022-09-11T05:36:45.923Z,17.49
2022-09-11T05:39:12.836Z,17.45
2022-09-11T05:41:40.278Z,17.45
2022-09-11T05:44:07.558Z,17.45
2022-09-11T05:46:36.825Z,17.46
2022-09-11T05:49:03.809Z,17.41
2022-09-11T05:51:30.575Z,17.29
2022-09-11T05:53:58.718Z,17.25
2022-09-11T05:56:26.492Z,17.31
2022-09-11T05:58:58.716Z,17.41
2022-09-11T06:01:33.771Z,17.45
2022-09-11T06:04:12.471Z,17.50
2022-09-11T06:06:41.723Z,17.57
2022-09-11T06:09:08.512Z,17.64
2022-09-11T06:11:35.648Z,17.72
2022-09-11T06:14:03.341Z,17.81
2022-09-11T06:16:31.797Z,17.87
2022-09-11T06:19:07.697Z,17.93
2022-09-11T06:21:34.899Z,17.96
2022-09-11T06:24:08.302Z,17.96
2022-09-11T06:26:35.740Z,17.91
2022-09-11T06:29:03.159Z,17.86
2022-09-11T06:31:31.266Z,17.87
2022-09-11T06:33:57.933Z,17.87
2022-09-11T06:36:30.110Z,17.92
2022-09-11T06:38:58.685Z,18.03
2022-09-11T06:41:28.361Z,17.96
2022-09-11T06:44:10.172Z,17.94
2022-09-11T06:46:40.368Z,17.92
2022-09-11T06:49:09.138Z,17.91
2022-09-11T06:51:55.774Z,17.96
2022-09-11T06:54:22.852Z,18.01
2022-09-11T06:56:49.732Z,18.05
2022-09-11T06:59:16.609Z,18.08
2022-09-11T07:01:44.114Z,18.11
2022-09-11T07:04:11.916Z,18.16
2022-09-11T07:06:39.127Z,18.13
2022-09-11T07:09:05.950Z,18.16
2022-09-11T07:11:43.751Z,18.24
2022-09-11T07:14:11.051Z,18.30
2022-09-11T07:16:40.336Z,18.35
2022-09-11T07:19:10.665Z,18.44
2022-09-11T07:21:39.169Z,18.48
2022-09-11T07:24:07.093Z,18.53
2022-09-11T07:26:37.923Z,18.58
2022-09-11T07:29:12.732Z,18.69
2022-09-11T07:31:40.192Z,18.74
2022-09-11T07:34:07.085Z,18.83
2022-09-11T07:36:35.109Z,18.94
2022-09-11T07:39:04.928Z,18.99
2022-09-11T07:41:37.019Z,19.03
2022-09-11T07:44:10.238Z,19.08
2022-09-11T07:46:40.305Z,19.04
2022-09-11T07:49:10.038Z,19.06
2022-09-11T07:51:38.124Z,19.09
2022-09-11T07:54:07.078Z,19.16
2022-09-11T07:56:35.413Z,19.21
2022-09-11T07:59:08.202Z,19.30
2022-09-11T08:01:36.960Z,19.51
2022-09-11T08:04:10.849Z,19.76
2022-09-11T08:06:38.551Z,19.99
2022-09-11T08:09:14.706Z,20.08
2022-09-11T08:11:48.647Z,20.18
2022-09-11T08:14:17.802Z,20.25
2022-09-11T08:16:48.405Z,20.36
2022-09-11T08:19:21.830Z,20.43
2022-09-11T08:21:53.520Z,20.46
2022-09-11T08:24:21.470Z,20.44
2022-09-11T08:26:51.057Z,20.35
2022-09-11T08:29:19.428Z,20.34
2022-09-11T08:31:47.454Z,20.45
2022-09-11T08:34:15.774Z,20.45
2022-09-11T08:36:43.017Z,20.42
2022-09-11T08:39:11.122Z,20.48
2022-09-11T08:41:49.914Z,20.56
2022-09-11T08:44:25.594Z,20.57
2022-09-11T08:47:06.219Z,20.51
2022-09-11T08:49:43.373Z,20.65
2022-09-11T08:52:13.948Z,20.83
2022-09-11T08:54:42.215Z,20.97
2022-09-11T08:57:21.049Z,21.07
2022-09-11T09:00:09.878Z,21.20
2022-09-11T09:03:09.538Z,21.38
2022-09-11T09:05:52.338Z,21.48
2022-09-11T09:08:37.422Z,21.49
2022-09-11T09:11:20.494Z,21.53
2022-09-11T09:14:14.387Z,21.54
2022-09-11T09:16:49.821Z,21.60
2022-09-11T09:19:25.617Z,21.62
2022-09-11T09:22:14.362Z,21.53
2022-09-11T09:24:48.553Z,21.30
2022-09-11T09:27:20.100Z,21.26
2022-09-11T09:29:51.902Z,21.33
2022-09-11T09:32:24.164Z,21.34
2022-09-11T09:34:52.895Z,21.33
2022-09-11T09:37:23.674Z,21.34
2022-09-11T09:39:52.155Z,21.22
2022-09-11T09:42:57.801Z,20.99
2022-09-11T09:45:43.702Z,20.73
2022-09-11T09:48:11.857Z,20.79
2022-09-11T09:50:40.112Z,20.67
2022-09-11T09:53:12.017Z,20.83
2022-09-11T09:55:40.086Z,21.07
2022-09-11T09:58:07.647Z,21.14
2022-09-11T10:00:36.308Z,20.98
2022-09-11T10:03:21.183Z,20.91
2022-09-11T10:05:49.432Z,20.93
2022-09-11T10:08:36.059Z,21.06
2022-09-11T10:11:07.729Z,21.11
2022-09-11T10:13:41.719Z,21.30
2022-09-11T10:16:29.067Z,21.43
2022-09-11T10:18:56.327Z,21.33
2022-09-11T10:21:23.084Z,21.38
2022-09-11T10:24:01.073Z,21.63
2022-09-11T10:26:31.484Z,21.81
2022-09-11T10:29:19.260Z,21.95
2022-09-11T10:31:51.606Z,22.21
2022-09-11T10:34:20.164Z,22.41
2022-09-11T10:36:55.087Z,22.58
2022-09-11T10:39:23.537Z,22.71
2022-09-11T10:41:54.450Z,22.87
2022-09-11T10:44:22.519Z,22.96
2022-09-11T10:47:15.714Z,23.09
2022-09-11T10:49:42.565Z,23.19
2022-09-11T10:52:09.144Z,23.20
2022-09-11T10:55:03.192Z,23.27
2022-09-11T10:57:38.625Z,23.16
2022-09-11T11:00:09.184Z,23.01
2022-09-11T11:02:39.541Z,23.40
2022-09-11T11:05:08.742Z,23.64
2022-09-11T11:07:45.189Z,23.82
2022-09-11T11:10:44.963Z,24.07
2022-09-11T11:13:31.202Z,24.19
2022-09-11T11:16:13.978Z,23.69
2022-09-11T11:18:59.894Z,23.16
2022-09-11T11:21:26.682Z,22.78
2022-09-11T11:24:02.636Z,22.42
2022-09-11T11:26:57.430Z,22.56
2022-09-11T11:29:51.428Z,22.43
2022-09-11T11:32:53.716Z,22.31
2022-09-11T11:36:07.885Z,22.39
2022-09-11T11:39:00.583Z,22.70
2022-09-11T11:41:27.310Z,22.62
2022-09-11T11:43:55.678Z,22.51
2022-09-11T11:46:40.339Z,22.57
2022-09-11T11:49:31.482Z,22.58
2022-09-11T11:52:15.426Z,22.75
2022-09-11T11:54:49.758Z,22.85
2022-09-11T11:57:20.562Z,22.98
2022-09-11T11:59:55.738Z,23.15
2022-09-11T12:02:30.917Z,23.31
2022-09-11T12:05:08.233Z,23.19
2022-09-11T12:07:37.357Z,23.05
2022-09-11T12:10:06.198Z,22.96
2022-09-11T12:12:44.642Z,23.02
2022-09-11T12:15:32.277Z,23.04
2022-09-11T12:18:04.866Z,22.89
2022-09-11T12:20:35.245Z,22.71
2022-09-11T12:23:01.968Z,22.68
2022-09-11T12:25:28.577Z,22.74
2022-09-11T12:28:23.453Z,22.98
2022-09-11T12:31:07.925Z,23.24
2022-09-11T12:33:40.780Z,23.27
2022-09-11T12:36:36.631Z,23.39
2022-09-11T12:39:14.455Z,23.52
2022-09-11T12:41:41.618Z,23.57
2022-09-11T12:44:51.063Z,23.63
2022-09-11T12:47:39.039Z,23.63
2022-09-11T12:50:05.677Z,23.70
2022-09-11T12:52:40.278Z,23.51
2022-09-11T12:55:31.447Z,23.27
2022-09-11T12:58:02.650Z,23.41
2022-09-11T13:00:38.323Z,23.40
2022-09-11T13:03:07.338Z,23.69
2022-09-11T13:05:38.510Z,23.89
2022-09-11T13:08:16.378Z,23.59
2022-09-11T13:10:43.362Z,23.40
2022-09-11T13:13:34.919Z,23.49
2022-09-11T13:16:19.006Z,23.79
2022-09-11T13:18:45.784Z,23.87
2022-09-11T13:21:15.042Z,23.75
2022-09-11T13:23:43.068Z,23.78
2022-09-11T13:26:15.994Z,23.74
2022-09-11T13:28:47.602Z,23.69
2022-09-11T13:31:29.801Z,23.57
2022-09-11T13:33:56.982Z,23.55
2022-09-11T13:36:24.695Z,23.67
2022-09-11T13:38:56.061Z,23.74
2022-09-11T13:41:25.858Z,23.88
2022-09-11T13:43:58.526Z,24.01
2022-09-11T13:46:31.468Z,24.04
2022-09-11T13:49:10.980Z,24.03
2022-09-11T13:51:43.244Z,23.86
2022-09-11T13:54:13.339Z,23.80
2022-09-11T13:57:07.364Z,23.84
2022-09-11T13:59:38.381Z,23.81
2022-09-11T14:02:21.877Z,23.92
2022-09-11T14:04:50.301Z,24.00
2022-09-11T14:07:20.456Z,23.89
2022-09-11T14:09:48.097Z,24.00
2022-09-11T14:12:14.920Z,24.09
2022-09-11T14:14:46.949Z,24.16
2022-09-11T14:17:14.685Z,24.18
2022-09-11T14:19:42.978Z,24.14
2022-09-11T14:22:36.402Z,24.08
2022-09-11T14:25:09.434Z,24.09
2022-09-11T14:27:43.159Z,24.01
2022-09-11T14:30:37.151Z,24.06
2022-09-11T14:33:15.174Z,23.92
2022-09-11T14:35:42.857Z,23.93
2022-09-11T14:38:11.876Z,23.91
2022-09-11T14:40:43.793Z,23.92
2022-09-11T14:43:11.912Z,23.88
2022-09-11T14:45:39.066Z,23.92
2022-09-11T14:48:11.690Z,23.99
2022-09-11T14:50:38.961Z,24.04
2022-09-11T14:53:05.675Z,24.04
2022-09-11T14:55:32.571Z,23.96
2022-09-11T14:57:59.355Z,23.97
2022-09-11T15:00:26.017Z,24.00
2022-09-11T15:02:52.918Z,23.97
2022-09-11T15:05:22.947Z,23.98
2022-09-11T15:07:49.736Z,24.07
2022-09-11T15:10:16.495Z,24.11
2022-09-11T15:12:44.476Z,24.01
2022-09-11T15:15:13.872Z,24.01
2022-09-11T15:17:40.617Z,24.17
2022-09-11T15:20:09.462Z,24.30
2022-09-11T15:22:38.203Z,24.48
2022-09-11T15:25:05.666Z,24.99
2022-09-11T15:27:32.506Z,26.68
2022-09-11T15:30:00.499Z,31.50
2022-09-11T15:32:27.530Z,37.63
2022-09-11T15:34:54.910Z,41.67
2022-09-11T15:37:22.096Z,44.69
2022-09-11T15:39:49.613Z,47.84
2022-09-11T15:42:16.249Z,49.70
2022-09-11T15:44:42.772Z,51.34
2022-09-11T15:47:10.020Z,52.48
2022-09-11T15:49:41.818Z,53.11
2022-09-11T15:52:11.210Z,53.37
2022-09-11T15:54:37.890Z,53.32
2022-09-11T15:57:04.629Z,52.73
2022-09-11T15:59:31.305Z,51.96
2022-09-11T16:01:59.287Z,51.66
2022-09-11T16:04:28.305Z,51.37
2022-09-11T16:06:55.457Z,50.74
2022-09-11T16:09:24.835Z,50.54
2022-09-11T16:11:53.311Z,50.44
2022-09-11T16:14:32.609Z,50.08
2022-09-11T16:17:00.369Z,49.96
2022-09-11T16:19:28.387Z,49.77
2022-09-11T16:21:56.981Z,49.81
2022-09-11T16:24:25.530Z,49.64
2022-09-11T16:26:55.740Z,48.98
2022-09-11T16:29:24.546Z,48.98
2022-09-11T16:31:51.532Z,49.16
2022-09-11T16:34:18.172Z,48.79
2022-09-11T16:36:45.622Z,48.65
2022-09-11T16:39:14.205Z,48.60
2022-09-11T16:41:40.953Z,47.36
2022-09-11T16:44:09.218Z,44.00
2022-09-11T16:46:36.230Z,39.58
2022-09-11T16:49:03.300Z,35.67
2022-09-11T16:51:30.182Z,32.92
2022-09-11T16:53:56.971Z,30.90
2022-09-11T16:56:24.425Z,29.46
2022-09-11T16:58:51.474Z,28.17
2022-09-11T17:01:28.080Z,27.00
2022-09-11T17:03:56.247Z,26.13
2022-09-11T17:06:24.583Z,25.43
2022-09-11T17:08:51.630Z,24.90
2022-09-11T17:11:20.564Z,24.50
2022-09-11T17:13:47.769Z,24.23
2022-09-11T17:16:17.244Z,24.04
2022-09-11T17:18:53.584Z,23.78
2022-09-11T17:21:24.036Z,23.46
2022-09-11T17:23:52.246Z,23.20
2022-09-11T17:26:19.169Z,22.96
2022-09-11T17:28:47.821Z,22.76
2022-09-11T17:31:16.900Z,22.55
2022-09-11T17:33:45.495Z,22.31
2022-09-11T17:36:12.943Z,22.05
2022-09-11T17:38:40.590Z,21.69
2022-09-11T17:41:08.592Z,21.37
2022-09-11T17:43:36.921Z,21.13
2022-09-11T17:46:10.506Z,20.90
2022-09-11T17:48:39.199Z,20.62
2022-09-11T17:51:10.168Z,20.40
2022-09-11T17:53:41.548Z,20.33
2022-09-11T17:56:17.481Z,20.27
2022-09-11T17:58:45.420Z,20.20
2022-09-11T18:01:16.588Z,20.08
2022-09-11T18:03:44.239Z,19.99
2022-09-11T18:06:37.759Z,19.91
2022-09-11T18:09:16.268Z,19.80
2022-09-11T18:11:44.854Z,19.67
2022-09-11T18:14:12.017Z,19.45
2022-09-11T18:16:39.220Z,19.41
2022-09-11T18:19:06.589Z,19.30
2022-09-11T18:21:38.161Z,19.21
2022-09-11T18:24:06.689Z,19.14
2022-09-11T18:26:37.079Z,19.10
2022-09-11T18:29:04.675Z,19.11
2022-09-11T18:31:33.128Z,19.06
2022-09-11T18:34:00.907Z,19.04
2022-09-11T18:36:29.672Z,18.94
2022-09-11T18:39:00.145Z,18.86
2022-09-11T18:41:28.239Z,18.82
2022-09-11T18:43:56.247Z,18.78
2022-09-11T18:46:23.711Z,18.72
2022-09-11T18:48:51.330Z,18.63
2022-09-11T18:51:19.794Z,18.49
2022-09-11T18:53:54.066Z,18.39
2022-09-11T18:56:22.434Z,18.44
2022-09-11T18:58:50.528Z,18.40
2022-09-11T19:01:19.459Z,18.44
2022-09-11T19:03:47.482Z,18.38
2022-09-11T19:06:20.547Z,18.26
2022-09-11T19:08:48.581Z,18.23
2022-09-11T19:11:27.265Z,18.19
2022-09-11T19:13:56.855Z,18.10
2022-09-11T19:16:23.977Z,17.93
2022-09-11T19:18:50.832Z,17.87
2022-09-11T19:21:20.803Z,17.86
2022-09-11T19:23:50.282Z,17.82
2022-09-11T19:26:22.901Z,17.78
2022-09-11T19:28:50.704Z,17.73
2022-09-11T19:31:24.576Z,17.71
2022-09-11T19:33:52.051Z,17.74
2022-09-11T19:36:21.678Z,17.78
2022-09-11T19:38:50.623Z,17.78
2022-09-11T19:41:23.184Z,17.71
2022-09-11T19:43:50.868Z,17.62
2022-09-11T19:46:24.325Z,17.52
2022-09-11T19:48:53.357Z,17.50
2022-09-11T19:51:23.849Z,17.54
2022-09-11T19:53:51.198Z,17.61
2022-09-11T19:56:19.087Z,17.49
2022-09-11T19:58:46.078Z,17.46
2022-09-11T20:01:15.302Z,17.39
2022-09-11T20:03:43.959Z,17.34
2022-09-11T20:06:12.583Z,17.33
2022-09-11T20:08:43.380Z,17.34
2022-09-11T20:11:13.675Z,17.34
2022-09-11T20:13:40.596Z,17.26
2022-09-11T20:16:11.204Z,17.27
2022-09-11T20:18:38.261Z,17.28
2022-09-11T20:21:06.998Z,17.25
2022-09-11T20:23:34.186Z,17.24
2022-09-11T20:26:17.463Z,17.22
2022-09-11T20:28:46.094Z,17.18
2022-09-11T20:31:20.056Z,17.14
2022-09-11T20:33:49.433Z,17.08
2022-09-11T20:36:16.892Z,17.02
2022-09-11T20:38:43.625Z,16.96
2022-09-11T20:41:14.426Z,16.88
2022-09-11T20:43:42.007Z,16.89
2022-09-11T20:46:09.604Z,16.92
2022-09-11T20:48:37.444Z,16.90
2022-09-11T20:51:06.474Z,16.89
2022-09-11T20:53:33.461Z,16.87
2022-09-11T20:56:04.863Z,16.87
2022-09-11T20:58:32.437Z,16.85
2022-09-11T21:01:00.671Z,16.82
2022-09-11T21:03:29.061Z,16.79
2022-09-11T21:05:56.660Z,16.69
2022-09-11T21:08:25.507Z,16.60
2022-09-11T21:10:52.248Z,16.59
2022-09-11T21:13:18.995Z,16.57
2022-09-11T21:15:47.410Z,16.57
2022-09-11T21:18:14.683Z,16.57
2022-09-11T21:20:41.291Z,16.54
2022-09-11T21:23:08.135Z,16.52
2022-09-11T21:25:39.467Z,16.48
2022-09-11T21:28:06.211Z,16.43
2022-09-11T21:30:33.035Z,16.40
2022-09-11T21:32:59.694Z,16.33
2022-09-11T21:35:26.366Z,16.28
2022-09-11T21:37:53.034Z,16.26
2022-09-11T21:40:19.683Z,16.21
2022-09-11T21:42:46.411Z,16.18
2022-09-11T21:45:13.030Z,16.15
2022-09-11T21:47:39.777Z,16.14
2022-09-11T21:50:07.200Z,16.11
2022-09-11T21:52:34.253Z,16.11
2022-09-11T21:55:00.942Z,16.08
2022-09-11T21:57:30.947Z,16.05
2022-09-11T21:59:58.155Z,16.02
2022-09-11T22:02:25.853Z,16.01
2022-09-11T22:04:53.145Z,15.97
2022-09-11T22:07:20.347Z,15.92
2022-09-11T22:09:48.034Z,15.88
2022-09-11T22:12:15.626Z,15.83
2022-09-11T22:14:44.399Z,15.78
2022-09-11T22:17:11.990Z,15.75
2022-09-11T22:19:38.716Z,15.71
2022-09-11T22:22:06.780Z,15.70
2022-09-11T22:24:33.701Z,15.69
2022-09-11T22:27:00.375Z,15.65
2022-09-11T22:29:27.091Z,15.64
2022-09-11T22:31:53.767Z,15.57
2022-09-11T22:34:20.557Z,15.54
2022-09-11T22:36:47.402Z,15.51
2022-09-11T22:39:14.136Z,15.43
2022-09-11T22:41:41.013Z,15.38
2022-09-11T22:44:09.598Z,15.36
2022-09-11T22:46:36.244Z,15.38
2022-09-11T22:49:03.641Z,15.38
2022-09-11T22:51:34.025Z,15.33
2022-09-11T22:54:00.827Z,15.31
2022-09-11T22:56:27.474Z,15.26
2022-09-11T22:58:54.202Z,15.22
2022-09-11T23:01:22.718Z,15.21
2022-09-11T23:03:53.262Z,15.17
2022-09-11T23:06:39.054Z,15.14
2022-09-11T23:09:07.582Z,15.09
2022-09-11T23:11:34.322Z,15.10
2022-09-11T23:14:01.014Z,15.12
2022-09-11T23:16:29.410Z,15.13
2022-09-11T23:18:58.585Z,15.19
2022-09-11T23:21:26.063Z,15.20
2022-09-11T23:23:54.909Z,15.22
2022-09-11T23:26:22.073Z,15.23
2022-09-11T23:28:48.814Z,15.23
2022-09-11T23:31:25.587Z,15.23
2022-09-11T23:33:54.389Z,15.15
2022-09-11T23:36:21.578Z,15.12
2022-09-11T23:38:49.323Z,15.11
2022-09-11T23:41:16.659Z,14.97
2022-09-11T23:43:43.546Z,14.91
2022-09-11T23:46:10.815Z,14.91
2022-09-11T23:48:37.487Z,14.93
2022-09-11T23:51:05.507Z,14.95
2022-09-11T23:53:32.238Z,15.00
2022-09-11T23:55:59.030Z,15.07
2022-09-11T23:58:25.852Z,15.09
